Aérodrome :
LOGIN :

S'inscrire | Disclaimer

   EN    FR    IT 

 










Légende :    VFR   VFR Marginal   IFR   IFR Intensif   IFR Très Intensif
Visi : 
Plafond : 
>= 8 km
>= 3000ft
5 à 8 km
1000 à 3000 ft
1500m à 5 km
500 à 1000 ft
800 à 1500m
200 à 500 ft
< 800m
< 200 ft
Symboles :   Orages  Brouillard  Fortes neiges  Fortes précipitations  Vent > 20 kt
SIGMETs :   Divers  Orages  Givrage  Turbulence  Onde Orograph.  Cendres Volcan.







- Altitude de l'aérodrome : 436 ft
- Code IATA : ANG
- Voir les cartes d'approche


LFBU - Angoulême Brie Champniers

DERNIER METAR :
  • 241000Z AUTO 35004KT 280V050 9999 FEW048 23/11 Q1022 NOSIG

METARs EXPIRÉS :
  • 240930Z AUTO 32007KT 280V030 9999 SCT044 22/10 Q1022 NOSIG
  • 240900Z AUTO VRB02KT 9999 FEW042 22/11 Q1022 NOSIG
  • 240830Z AUTO 36005KT 320V060 CAVOK 21/10 Q1022 NOSIG
  • 240800Z AUTO 01003KT 320V060 CAVOK 20/11 Q1022 NOSIG
  • 240730Z AUTO VRB02KT 9999 BKN043 19/11 Q1023 NOSIG

TAF TAF LFBU
Valide du 23 à 18h jusqu'au 24 à 18h UTC


231700Z 2318/2418 27008KT CAVOK
PROB30
TEMPO 2403/2407 BKN015
Pas de NOTAMs connus pour ce terrain.



MET'MAP, la Météo Aéronautique d'un coup d'oeil ! - Copyright ORBIFLY Décembre 2007 - Disclaimer

ORBIFLY MET'MAP TEAM :

Programmation & Développement : Alexandra Zaïnal
Conception & Développement : Baudouin d'Aumeries
Co-Programmation & Développement : Marc-Olivier Méhu
Soutien technique & logistique : Manuel Goepfert

Contact : metmap@orbifly.com




SOURCES & CREDITS :

   NOAA